sensor_id;sensor_type;location;lat;lon;timestamp;temperature;humidity
20977;DHT22;10647;51.016;3.720;2023-03-23T00:00:40;14.70;99.90
20977;DHT22;10647;51.016;3.720;2023-03-23T00:03:08;14.70;99.90
20977;DHT22;10647;51.016;3.720;2023-03-23T00:05:39;14.80;99.90
20977;DHT22;10647;51.016;3.720;2023-03-23T00:08:09;14.70;99.90
20977;DHT22;10647;51.016;3.720;2023-03-23T00:10:41;14.80;99.90
20977;DHT22;10647;51.016;3.720;2023-03-23T00:13:08;14.80;99.90
20977;DHT22;10647;51.016;3.720;2023-03-23T00:15:40;14.80;99.90
20977;DHT22;10647;51.016;3.720;2023-03-23T00:18:13;14.70;99.90
20977;DHT22;10647;51.016;3.720;2023-03-23T00:20:43;14.80;99.90
20977;DHT22;10647;51.016;3.720;2023-03-23T00:23:16;14.70;99.90
20977;DHT22;10647;51.016;3.720;2023-03-23T00:25:44;14.70;99.90
20977;DHT22;10647;51.016;3.720;2023-03-23T00:28:14;14.60;99.90
20977;DHT22;10647;51.016;3.720;2023-03-23T00:30:53;14.70;99.90
20977;DHT22;10647;51.016;3.720;2023-03-23T00:33:18;14.70;99.90
20977;DHT22;10647;51.016;3.720;2023-03-23T00:35:47;14.50;99.90
20977;DHT22;10647;51.016;3.720;2023-03-23T00:38:16;14.50;99.90
20977;DHT22;10647;51.016;3.720;2023-03-23T00:43:21;14.40;99.90
20977;DHT22;10647;51.016;3.720;2023-03-23T00:45:53;14.50;99.90
20977;DHT22;10647;51.016;3.720;2023-03-23T00:48:20;14.40;99.90
20977;DHT22;10647;51.016;3.720;2023-03-23T00:50:58;14.40;99.90
20977;DHT22;10647;51.016;3.720;2023-03-23T00:53:27;14.40;99.90
20977;DHT22;10647;51.016;3.720;2023-03-23T00:55:57;14.50;99.90
20977;DHT22;10647;51.016;3.720;2023-03-23T00:58:27;14.50;99.90
20977;DHT22;10647;51.016;3.720;2023-03-23T01:01:00;14.50;99.90
20977;DHT22;10647;51.016;3.720;2023-03-23T01:03:29;14.50;99.90
20977;DHT22;10647;51.016;3.720;2023-03-23T01:06:19;14.50;99.90
20977;DHT22;10647;51.016;3.720;2023-03-23T01:08:35;14.50;99.90
20977;DHT22;10647;51.016;3.720;2023-03-23T01:11:15;14.50;99.90
20977;DHT22;10647;51.016;3.720;2023-03-23T01:13:45;14.50;99.90
20977;DHT22;10647;51.016;3.720;2023-03-23T01:16:12;14.60;99.90
20977;DHT22;10647;51.016;3.720;2023-03-23T01:18:39;14.60;99.90
20977;DHT22;10647;51.016;3.720;2023-03-23T01:21:15;14.50;99.90
20977;DHT22;10647;51.016;3.720;2023-03-23T01:23:46;14.50;99.90
20977;DHT22;10647;51.016;3.720;2023-03-23T01:26:19;14.40;99.90
20977;DHT22;10647;51.016;3.720;2023-03-23T01:28:47;14.40;99.90
20977;DHT22;10647;51.016;3.720;2023-03-23T01:31:39;14.40;99.90
20977;DHT22;10647;51.016;3.720;2023-03-23T01:34:04;14.30;99.90
20977;DHT22;10647;51.016;3.720;2023-03-23T01:36:34;14.40;99.90
20977;DHT22;10647;51.016;3.720;2023-03-23T01:39:08;14.40;99.90
20977;DHT22;10647;51.016;3.720;2023-03-23T01:41:34;14.50;99.90
20977;DHT22;10647;51.016;3.720;2023-03-23T01:47:01;14.40;99.90
20977;DHT22;10647;51.016;3.720;2023-03-23T01:49:37;14.40;99.90
20977;DHT22;10647;51.016;3.720;2023-03-23T01:52:16;14.40;99.90
20977;DHT22;10647;51.016;3.720;2023-03-23T01:54:50;14.40;99.90
20977;DHT22;10647;51.016;3.720;2023-03-23T01:57:22;14.40;99.90
20977;DHT22;10647;51.016;3.720;2023-03-23T01:59:54;14.50;99.90
20977;DHT22;10647;51.016;3.720;2023-03-23T02:02:29;14.50;99.90
20977;DHT22;10647;51.016;3.720;2023-03-23T02:05:02;14.50;99.90
20977;DHT22;10647;51.016;3.720;2023-03-23T02:07:26;14.50;99.90
20977;DHT22;10647;51.016;3.720;2023-03-23T02:09:54;14.50;99.90
20977;DHT22;10647;51.016;3.720;2023-03-23T02:12:27;14.50;99.90
20977;DHT22;10647;51.016;3.720;2023-03-23T02:14:55;14.50;99.90
20977;DHT22;10647;51.016;3.720;2023-03-23T02:23:39;14.60;99.90
20977;DHT22;10647;51.016;3.720;2023-03-23T02:26:22;14.60;99.90
20977;DHT22;10647;51.016;3.720;2023-03-23T02:34:55;14.50;99.90
20977;DHT22;10647;51.016;3.720;2023-03-23T02:37:36;14.50;99.90
20977;DHT22;10647;51.016;3.720;2023-03-23T02:40:12;14.50;99.90
20977;DHT22;10647;51.016;3.720;2023-03-23T02:42:41;14.50;99.90
20977;DHT22;10647;51.016;3.720;2023-03-23T02:45:11;14.50;99.90
20977;DHT22;10647;51.016;3.720;2023-03-23T02:47:41;14.60;99.90
20977;DHT22;10647;51.016;3.720;2023-03-23T02:50:11;14.60;99.90
20977;DHT22;10647;51.016;3.720;2023-03-23T02:52:42;14.60;99.90
20977;DHT22;10647;51.016;3.720;2023-03-23T02:55:12;14.60;99.90
20977;DHT22;10647;51.016;3.720;2023-03-23T02:57:59;14.50;99.90
20977;DHT22;10647;51.016;3.720;2023-03-23T03:00:31;14.60;99.90
20977;DHT22;10647;51.016;3.720;2023-03-23T03:03:10;14.50;99.90
20977;DHT22;10647;51.016;3.720;2023-03-23T03:11:35;14.60;99.90
20977;DHT22;10647;51.016;3.720;2023-03-23T03:14:15;14.60;99.90
20977;DHT22;10647;51.016;3.720;2023-03-23T03:16:55;14.50;99.90
20977;DHT22;10647;51.016;3.720;2023-03-23T03:19:29;14.60;99.90
20977;DHT22;10647;51.016;3.720;2023-03-23T03:22:00;14.60;99.90
20977;DHT22;10647;51.016;3.720;2023-03-23T03:24:32;14.60;99.90
20977;DHT22;10647;51.016;3.720;2023-03-23T03:27:10;14.50;99.90
20977;DHT22;10647;51.016;3.720;2023-03-23T03:29:41;14.50;99.90
20977;DHT22;10647;51.016;3.720;2023-03-23T03:32:11;14.50;99.90
20977;DHT22;10647;51.016;3.720;2023-03-23T03:34:41;14.50;99.90
20977;DHT22;10647;51.016;3.720;2023-03-23T03:37:10;14.50;99.90
20977;DHT22;10647;51.016;3.720;2023-03-23T03:39:42;14.40;99.90
20977;DHT22;10647;51.016;3.720;2023-03-23T03:42:10;14.50;99.90
20977;DHT22;10647;51.016;3.720;2023-03-23T03:44:53;14.50;99.90
20977;DHT22;10647;51.016;3.720;2023-03-23T03:47:19;14.60;99.90
20977;DHT22;10647;51.016;3.720;2023-03-23T03:49:47;14.60;99.90
20977;DHT22;10647;51.016;3.720;2023-03-23T03:52:17;14.60;99.90
20977;DHT22;10647;51.016;3.720;2023-03-23T03:54:47;14.50;99.90
20977;DHT22;10647;51.016;3.720;2023-03-23T03:57:17;14.50;99.90
20977;DHT22;10647;51.016;3.720;2023-03-23T03:59:45;14.50;99.90
20977;DHT22;10647;51.016;3.720;2023-03-23T04:02:18;14.60;99.90
20977;DHT22;10647;51.016;3.720;2023-03-23T04:04:50;14.50;99.90
20977;DHT22;10647;51.016;3.720;2023-03-23T04:07:28;14.40;99.90
20977;DHT22;10647;51.016;3.720;2023-03-23T04:09:59;14.40;99.90
20977;DHT22;10647;51.016;3.720;2023-03-23T04:12:48;14.50;99.90
20977;DHT22;10647;51.016;3.720;2023-03-23T04:15:12;14.50;99.90
20977;DHT22;10647;51.016;3.720;2023-03-23T04:17:40;14.40;99.90
20977;DHT22;10647;51.016;3.720;2023-03-23T04:20:09;14.30;99.90
20977;DHT22;10647;51.016;3.720;2023-03-23T04:22:42;14.40;99.90
20977;DHT22;10647;51.016;3.720;2023-03-23T04:25:11;14.40;99.90
20977;DHT22;10647;51.016;3.720;2023-03-23T04:27:40;14.50;99.90
20977;DHT22;10647;51.016;3.720;2023-03-23T04:30:10;14.50;99.90
20977;DHT22;10647;51.016;3.720;2023-03-23T04:32:40;14.40;99.90
20977;DHT22;10647;51.016;3.720;2023-03-23T04:35:10;14.40;99.90
20977;DHT22;10647;51.016;3.720;2023-03-23T04:40:28;14.50;99.90
20977;DHT22;10647;51.016;3.720;2023-03-23T04:42:55;14.30;99.90
20977;DHT22;10647;51.016;3.720;2023-03-23T04:45:25;14.30;99.90
20977;DHT22;10647;51.016;3.720;2023-03-23T04:48:00;14.30;99.90
20977;DHT22;10647;51.016;3.720;2023-03-23T04:50:31;14.20;99.90
20977;DHT22;10647;51.016;3.720;2023-03-23T04:53:00;14.30;99.90
20977;DHT22;10647;51.016;3.720;2023-03-23T04:55:35;14.30;99.90
20977;DHT22;10647;51.016;3.720;2023-03-23T04:58:07;14.30;99.90
20977;DHT22;10647;51.016;3.720;2023-03-23T05:00:35;14.30;99.90
20977;DHT22;10647;51.016;3.720;2023-03-23T05:03:03;14.20;99.90
20977;DHT22;10647;51.016;3.720;2023-03-23T05:05:33;14.10;99.90
20977;DHT22;10647;51.016;3.720;2023-03-23T05:08:03;13.90;99.90
20977;DHT22;10647;51.016;3.720;2023-03-23T05:10:31;13.80;99.90
20977;DHT22;10647;51.016;3.720;2023-03-23T05:12:59;13.70;99.90
20977;DHT22;10647;51.016;3.720;2023-03-23T05:15:26;13.60;99.90
20977;DHT22;10647;51.016;3.720;2023-03-23T05:17:57;13.60;99.90
20977;DHT22;10647;51.016;3.720;2023-03-23T05:20:23;13.50;99.90
20977;DHT22;10647;51.016;3.720;2023-03-23T05:22:51;13.50;99.90
20977;DHT22;10647;51.016;3.720;2023-03-23T05:25:20;13.50;99.90
20977;DHT22;10647;51.016;3.720;2023-03-23T05:27:49;13.30;99.90
20977;DHT22;10647;51.016;3.720;2023-03-23T05:30:19;13.30;99.90
20977;DHT22;10647;51.016;3.720;2023-03-23T05:32:49;13.40;99.90
20977;DHT22;10647;51.016;3.720;2023-03-23T05:35:18;13.40;99.90
20977;DHT22;10647;51.016;3.720;2023-03-23T05:37:50;13.30;99.90
20977;DHT22;10647;51.016;3.720;2023-03-23T05:40:20;13.30;99.90
20977;DHT22;10647;51.016;3.720;2023-03-23T05:45:33;12.90;99.90
20977;DHT22;10647;51.016;3.720;2023-03-23T05:48:03;12.60;99.90
20977;DHT22;10647;51.016;3.720;2023-03-23T05:50:32;12.50;99.90
20977;DHT22;10647;51.016;3.720;2023-03-23T05:53:05;12.50;99.90
20977;DHT22;10647;51.016;3.720;2023-03-23T05:58:40;12.40;99.90
20977;DHT22;10647;51.016;3.720;2023-03-23T06:01:09;12.40;99.90
20977;DHT22;10647;51.016;3.720;2023-03-23T06:03:44;12.30;99.90
20977;DHT22;10647;51.016;3.720;2023-03-23T06:06:12;12.30;99.90
20977;DHT22;10647;51.016;3.720;2023-03-23T06:08:41;12.10;99.90
20977;DHT22;10647;51.016;3.720;2023-03-23T06:11:09;12.10;99.90
20977;DHT22;10647;51.016;3.720;2023-03-23T06:13:39;12.00;99.90
20977;DHT22;10647;51.016;3.720;2023-03-23T06:16:20;11.90;99.90
20977;DHT22;10647;51.016;3.720;2023-03-23T06:18:56;11.90;99.90
20977;DHT22;10647;51.016;3.720;2023-03-23T06:21:18;11.80;99.90
20977;DHT22;10647;51.016;3.720;2023-03-23T06:23:46;11.80;99.90
20977;DHT22;10647;51.016;3.720;2023-03-23T06:26:16;11.80;99.90
20977;DHT22;10647;51.016;3.720;2023-03-23T06:34:50;11.80;99.90
20977;DHT22;10647;51.016;3.720;2023-03-23T06:37:22;11.80;99.90
20977;DHT22;10647;51.016;3.720;2023-03-23T06:39:51;11.70;99.90
20977;DHT22;10647;51.016;3.720;2023-03-23T06:42:21;11.80;99.90
20977;DHT22;10647;51.016;3.720;2023-03-23T06:44:52;11.80;99.90
20977;DHT22;10647;51.016;3.720;2023-03-23T06:47:24;11.90;99.90
20977;DHT22;10647;51.016;3.720;2023-03-23T06:49:52;12.00;99.90
20977;DHT22;10647;51.016;3.720;2023-03-23T06:52:33;12.00;99.90
20977;DHT22;10647;51.016;3.720;2023-03-23T06:55:05;12.00;99.90
20977;DHT22;10647;51.016;3.720;2023-03-23T06:57:34;12.00;99.90
20977;DHT22;10647;51.016;3.720;2023-03-23T07:00:02;12.00;99.90
20977;DHT22;10647;51.016;3.720;2023-03-23T07:02:32;12.00;99.90
20977;DHT22;10647;51.016;3.720;2023-03-23T07:04:59;12.00;99.90
20977;DHT22;10647;51.016;3.720;2023-03-23T07:07:30;12.00;99.90
20977;DHT22;10647;51.016;3.720;2023-03-23T07:10:00;12.00;99.90
20977;DHT22;10647;51.016;3.720;2023-03-23T07:12:29;11.90;99.90
20977;DHT22;10647;51.016;3.720;2023-03-23T07:15:08;11.90;99.90
20977;DHT22;10647;51.016;3.720;2023-03-23T07:17:37;11.90;99.90
20977;DHT22;10647;51.016;3.720;2023-03-23T07:20:07;11.90;99.90
20977;DHT22;10647;51.016;3.720;2023-03-23T07:22:35;11.90;99.90
20977;DHT22;10647;51.016;3.720;2023-03-23T07:25:02;11.90;99.90
20977;DHT22;10647;51.016;3.720;2023-03-23T07:27:38;12.00;99.90
20977;DHT22;10647;51.016;3.720;2023-03-23T07:30:06;12.20;99.90
20977;DHT22;10647;51.016;3.720;2023-03-23T07:32:34;12.30;99.90
20977;DHT22;10647;51.016;3.720;2023-03-23T07:35:04;12.50;99.90
20977;DHT22;10647;51.016;3.720;2023-03-23T07:37:43;12.70;99.90
20977;DHT22;10647;51.016;3.720;2023-03-23T07:40:13;12.60;99.90
20977;DHT22;10647;51.016;3.720;2023-03-23T07:42:51;12.70;99.90
20977;DHT22;10647;51.016;3.720;2023-03-23T07:45:24;12.80;99.90
20977;DHT22;10647;51.016;3.720;2023-03-23T07:47:56;12.90;99.90
20977;DHT22;10647;51.016;3.720;2023-03-23T07:50:24;13.00;99.90
20977;DHT22;10647;51.016;3.720;2023-03-23T07:52:59;13.20;99.90
20977;DHT22;10647;51.016;3.720;2023-03-23T07:55:57;13.20;99.90
20977;DHT22;10647;51.016;3.720;2023-03-23T07:58:20;13.30;99.90
20977;DHT22;10647;51.016;3.720;2023-03-23T08:00:50;13.60;99.90
20977;DHT22;10647;51.016;3.720;2023-03-23T08:03:25;13.70;99.90
20977;DHT22;10647;51.016;3.720;2023-03-23T08:06:01;13.80;99.90
20977;DHT22;10647;51.016;3.720;2023-03-23T08:08:31;13.70;99.90
20977;DHT22;10647;51.016;3.720;2023-03-23T08:10:59;13.50;99.90
20977;DHT22;10647;51.016;3.720;2023-03-23T08:13:30;13.20;99.90
20977;DHT22;10647;51.016;3.720;2023-03-23T08:15:56;13.20;99.90
20977;DHT22;10647;51.016;3.720;2023-03-23T08:18:24;13.20;99.90
20977;DHT22;10647;51.016;3.720;2023-03-23T08:20:52;13.30;99.90
20977;DHT22;10647;51.016;3.720;2023-03-23T08:23:33;13.30;99.90
20977;DHT22;10647;51.016;3.720;2023-03-23T08:26:06;13.40;99.90
20977;DHT22;10647;51.016;3.720;2023-03-23T08:28:36;13.50;99.90
20977;DHT22;10647;51.016;3.720;2023-03-23T08:31:13;13.60;99.90
20977;DHT22;10647;51.016;3.720;2023-03-23T08:33:59;13.80;99.90
20977;DHT22;10647;51.016;3.720;2023-03-23T08:36:27;14.00;99.90
20977;DHT22;10647;51.016;3.720;2023-03-23T08:38:57;14.10;99.90
20977;DHT22;10647;51.016;3.720;2023-03-23T08:41:29;14.10;99.90
20977;DHT22;10647;51.016;3.720;2023-03-23T08:43:58;14.10;99.90
20977;DHT22;10647;51.016;3.720;2023-03-23T08:46:27;14.10;99.90
20977;DHT22;10647;51.016;3.720;2023-03-23T08:49:00;14.20;99.90
20977;DHT22;10647;51.016;3.720;2023-03-23T08:51:26;14.20;99.90
20977;DHT22;10647;51.016;3.720;2023-03-23T08:54:01;14.10;99.90
20977;DHT22;10647;51.016;3.720;2023-03-23T08:56:37;14.10;99.90
20977;DHT22;10647;51.016;3.720;2023-03-23T08:59:12;14.20;99.90
20977;DHT22;10647;51.016;3.720;2023-03-23T09:01:47;14.50;99.90
20977;DHT22;10647;51.016;3.720;2023-03-23T09:04:13;14.40;99.90
20977;DHT22;10647;51.016;3.720;2023-03-23T09:06:44;14.30;99.90
20977;DHT22;10647;51.016;3.720;2023-03-23T09:09:12;14.20;99.90
20977;DHT22;10647;51.016;3.720;2023-03-23T09:11:40;14.10;99.90
20977;DHT22;10647;51.016;3.720;2023-03-23T09:14:10;14.20;99.90
20977;DHT22;10647;51.016;3.720;2023-03-23T09:16:43;14.20;99.90
20977;DHT22;10647;51.016;3.720;2023-03-23T09:19:11;14.30;99.90
20977;DHT22;10647;51.016;3.720;2023-03-23T09:21:39;14.40;99.90
20977;DHT22;10647;51.016;3.720;2023-03-23T09:24:12;14.50;99.90
20977;DHT22;10647;51.016;3.720;2023-03-23T09:26:48;14.60;99.90
20977;DHT22;10647;51.016;3.720;2023-03-23T09:29:20;14.80;99.90
20977;DHT22;10647;51.016;3.720;2023-03-23T09:31:47;15.10;99.90
20977;DHT22;10647;51.016;3.720;2023-03-23T09:34:15;15.30;99.90
20977;DHT22;10647;51.016;3.720;2023-03-23T09:36:44;15.40;99.90
20977;DHT22;10647;51.016;3.720;2023-03-23T09:39:16;15.40;99.90
20977;DHT22;10647;51.016;3.720;2023-03-23T09:41:58;15.50;99.90
20977;DHT22;10647;51.016;3.720;2023-03-23T09:47:30;15.50;99.90
20977;DHT22;10647;51.016;3.720;2023-03-23T09:50:17;15.60;99.90
20977;DHT22;10647;51.016;3.720;2023-03-23T09:53:21;15.80;99.90
20977;DHT22;10647;51.016;3.720;2023-03-23T09:55:53;16.30;99.90
20977;DHT22;10647;51.016;3.720;2023-03-23T10:01:31;17.10;99.90
20977;DHT22;10647;51.016;3.720;2023-03-23T10:04:25;17.40;99.90
20977;DHT22;10647;51.016;3.720;2023-03-23T10:07:05;17.70;99.90
20977;DHT22;10647;51.016;3.720;2023-03-23T10:09:30;17.90;99.90
20977;DHT22;10647;51.016;3.720;2023-03-23T10:17:57;18.10;99.90
20977;DHT22;10647;51.016;3.720;2023-03-23T10:21:01;18.20;99.90
20977;DHT22;10647;51.016;3.720;2023-03-23T10:28:45;18.30;99.90
20977;DHT22;10647;51.016;3.720;2023-03-23T10:31:20;18.20;99.90
20977;DHT22;10647;51.016;3.720;2023-03-23T10:33:52;18.30;99.90
20977;DHT22;10647;51.016;3.720;2023-03-23T10:36:27;18.40;99.90
20977;DHT22;10647;51.016;3.720;2023-03-23T10:39:17;18.40;99.90
20977;DHT22;10647;51.016;3.720;2023-03-23T10:41:47;18.50;99.90
20977;DHT22;10647;51.016;3.720;2023-03-23T10:44:33;18.30;99.90
20977;DHT22;10647;51.016;3.720;2023-03-23T10:47:06;18.20;99.90
20977;DHT22;10647;51.016;3.720;2023-03-23T10:49:55;18.10;99.90
20977;DHT22;10647;51.016;3.720;2023-03-23T10:52:30;18.00;99.90
20977;DHT22;10647;51.016;3.720;2023-03-23T10:55:04;18.40;99.90
20977;DHT22;10647;51.016;3.720;2023-03-23T10:57:37;18.70;99.90
20977;DHT22;10647;51.016;3.720;2023-03-23T11:05:51;19.60;99.90
20977;DHT22;10647;51.016;3.720;2023-03-23T11:11:38;19.60;99.90
20977;DHT22;10647;51.016;3.720;2023-03-23T11:14:17;19.30;99.90
20977;DHT22;10647;51.016;3.720;2023-03-23T11:16:56;19.30;99.90
20977;DHT22;10647;51.016;3.720;2023-03-23T11:19:30;19.20;99.90
20977;DHT22;10647;51.016;3.720;2023-03-23T11:22:35;19.20;99.90
20977;DHT22;10647;51.016;3.720;2023-03-23T11:25:06;19.30;99.90
20977;DHT22;10647;51.016;3.720;2023-03-23T11:27:38;19.20;99.90
20977;DHT22;10647;51.016;3.720;2023-03-23T11:30:18;19.10;99.90
20977;DHT22;10647;51.016;3.720;2023-03-23T11:32:51;18.90;99.90
20977;DHT22;10647;51.016;3.720;2023-03-23T11:38:44;18.70;99.90
20977;DHT22;10647;51.016;3.720;2023-03-23T11:41:17;18.80;99.90
20977;DHT22;10647;51.016;3.720;2023-03-23T11:43:46;19.00;99.90
20977;DHT22;10647;51.016;3.720;2023-03-23T11:46:32;19.00;99.90
20977;DHT22;10647;51.016;3.720;2023-03-23T11:49:43;18.90;99.90
20977;DHT22;10647;51.016;3.720;2023-03-23T11:55:13;19.20;99.90
20977;DHT22;10647;51.016;3.720;2023-03-23T11:57:45;19.10;99.90
20977;DHT22;10647;51.016;3.720;2023-03-23T12:00:21;19.20;99.90
20977;DHT22;10647;51.016;3.720;2023-03-23T12:08:46;19.50;99.90
20977;DHT22;10647;51.016;3.720;2023-03-23T12:11:24;19.30;99.90
20977;DHT22;10647;51.016;3.720;2023-03-23T12:20:13;18.70;99.90
20977;DHT22;10647;51.016;3.720;2023-03-23T12:22:52;18.40;99.90
20977;DHT22;10647;51.016;3.720;2023-03-23T12:25:37;18.00;99.90
20977;DHT22;10647;51.016;3.720;2023-03-23T12:28:38;17.70;99.90
20977;DHT22;10647;51.016;3.720;2023-03-23T12:48:31;17.30;99.90
20977;DHT22;10647;51.016;3.720;2023-03-23T12:56:29;17.40;99.90
20977;DHT22;10647;51.016;3.720;2023-03-23T13:01:51;17.80;99.90
20977;DHT22;10647;51.016;3.720;2023-03-23T13:04:27;17.60;99.90
20977;DHT22;10647;51.016;3.720;2023-03-23T13:07:16;17.70;99.90
20977;DHT22;10647;51.016;3.720;2023-03-23T13:09:55;18.40;99.90
20977;DHT22;10647;51.016;3.720;2023-03-23T13:12:25;21.50;99.90
20977;DHT22;10647;51.016;3.720;2023-03-23T13:15:08;23.20;99.90
20977;DHT22;10647;51.016;3.720;2023-03-23T13:18:19;21.80;99.90
20977;DHT22;10647;51.016;3.720;2023-03-23T13:24:09;20.60;99.90
20977;DHT22;10647;51.016;3.720;2023-03-23T13:26:41;20.10;99.90
20977;DHT22;10647;51.016;3.720;2023-03-23T13:29:20;19.90;99.90
20977;DHT22;10647;51.016;3.720;2023-03-23T13:34:38;19.50;99.90
20977;DHT22;10647;51.016;3.720;2023-03-23T13:37:21;20.70;99.90
20977;DHT22;10647;51.016;3.720;2023-03-23T13:39:52;23.80;99.90
20977;DHT22;10647;51.016;3.720;2023-03-23T13:47:49;23.40;99.90
20977;DHT22;10647;51.016;3.720;2023-03-23T13:53:12;22.70;99.90
20977;DHT22;10647;51.016;3.720;2023-03-23T13:55:51;23.20;99.90
20977;DHT22;10647;51.016;3.720;2023-03-23T13:58:25;22.60;99.90
20977;DHT22;10647;51.016;3.720;2023-03-23T14:03:46;24.20;99.90
20977;DHT22;10647;51.016;3.720;2023-03-23T14:06:23;26.80;99.90
20977;DHT22;10647;51.016;3.720;2023-03-23T14:08:55;28.50;99.90
20977;DHT22;10647;51.016;3.720;2023-03-23T14:11:26;29.50;99.90
20977;DHT22;10647;51.016;3.720;2023-03-23T14:14:05;27.00;99.90
20977;DHT22;10647;51.016;3.720;2023-03-23T14:16:40;25.60;99.90
20977;DHT22;10647;51.016;3.720;2023-03-23T14:19:29;24.80;99.90
20977;DHT22;10647;51.016;3.720;2023-03-23T14:22:00;23.90;99.90
20977;DHT22;10647;51.016;3.720;2023-03-23T14:24:31;23.00;99.90
20977;DHT22;10647;51.016;3.720;2023-03-23T14:27:22;22.30;99.90
20977;DHT22;10647;51.016;3.720;2023-03-23T14:30:07;21.90;99.90
20977;DHT22;10647;51.016;3.720;2023-03-23T14:32:32;21.30;99.90
20977;DHT22;10647;51.016;3.720;2023-03-23T14:35:04;21.00;99.90
20977;DHT22;10647;51.016;3.720;2023-03-23T14:37:37;21.80;99.90
20977;DHT22;10647;51.016;3.720;2023-03-23T14:40:08;24.00;99.90
20977;DHT22;10647;51.016;3.720;2023-03-23T14:42:38;25.60;99.90
20977;DHT22;10647;51.016;3.720;2023-03-23T14:45:12;26.50;99.90
20977;DHT22;10647;51.016;3.720;2023-03-23T14:47:46;26.00;99.90
20977;DHT22;10647;51.016;3.720;2023-03-23T14:50:41;25.40;99.90
20977;DHT22;10647;51.016;3.720;2023-03-23T14:56:09;24.00;99.90
20977;DHT22;10647;51.016;3.720;2023-03-23T14:58:33;26.30;99.90
20977;DHT22;10647;51.016;3.720;2023-03-23T15:01:16;27.90;99.90
20977;DHT22;10647;51.016;3.720;2023-03-23T15:03:51;27.90;99.90
20977;DHT22;10647;51.016;3.720;2023-03-23T15:06:25;27.10;99.90
20977;DHT22;10647;51.016;3.720;2023-03-23T15:08:55;26.30;99.90
20977;DHT22;10647;51.016;3.720;2023-03-23T15:11:28;25.40;99.90
20977;DHT22;10647;51.016;3.720;2023-03-23T15:13:59;24.70;99.90
20977;DHT22;10647;51.016;3.720;2023-03-23T15:16:30;24.30;99.90
20977;DHT22;10647;51.016;3.720;2023-03-23T15:21:47;24.10;99.90
20977;DHT22;10647;51.016;3.720;2023-03-23T15:24:46;23.30;99.90
20977;DHT22;10647;51.016;3.720;2023-03-23T15:27:39;22.70;99.90
20977;DHT22;10647;51.016;3.720;2023-03-23T15:33:16;21.50;99.90
20977;DHT22;10647;51.016;3.720;2023-03-23T15:35:32;21.10;99.90
20977;DHT22;10647;51.016;3.720;2023-03-23T15:38:12;21.00;99.90
20977;DHT22;10647;51.016;3.720;2023-03-23T15:40:37;21.10;99.90
20977;DHT22;10647;51.016;3.720;2023-03-23T15:43:19;20.80;99.90
20977;DHT22;10647;51.016;3.720;2023-03-23T15:51:41;19.50;99.90
20977;DHT22;10647;51.016;3.720;2023-03-23T15:54:12;18.60;99.90
20977;DHT22;10647;51.016;3.720;2023-03-23T15:56:44;18.20;99.90
20977;DHT22;10647;51.016;3.720;2023-03-23T15:59:19;18.10;99.90
20977;DHT22;10647;51.016;3.720;2023-03-23T16:01:43;18.00;99.90
20977;DHT22;10647;51.016;3.720;2023-03-23T16:04:16;18.10;99.90
20977;DHT22;10647;51.016;3.720;2023-03-23T16:07:03;18.00;99.90
20977;DHT22;10647;51.016;3.720;2023-03-23T16:09:34;18.10;99.90
20977;DHT22;10647;51.016;3.720;2023-03-23T16:12:08;18.20;99.90
20977;DHT22;10647;51.016;3.720;2023-03-23T16:14:34;18.40;99.90
20977;DHT22;10647;51.016;3.720;2023-03-23T16:17:18;18.60;99.90
20977;DHT22;10647;51.016;3.720;2023-03-23T16:19:42;18.70;99.90
20977;DHT22;10647;51.016;3.720;2023-03-23T16:22:14;18.80;99.90
20977;DHT22;10647;51.016;3.720;2023-03-23T16:24:41;18.80;99.90
20977;DHT22;10647;51.016;3.720;2023-03-23T16:27:16;18.80;99.90
20977;DHT22;10647;51.016;3.720;2023-03-23T16:29:45;18.80;99.90
20977;DHT22;10647;51.016;3.720;2023-03-23T16:35:06;18.50;99.90
20977;DHT22;10647;51.016;3.720;2023-03-23T16:37:48;18.40;99.90
20977;DHT22;10647;51.016;3.720;2023-03-23T16:40:17;18.40;99.90
20977;DHT22;10647;51.016;3.720;2023-03-23T16:42:46;18.40;99.90
20977;DHT22;10647;51.016;3.720;2023-03-23T16:45:22;18.40;99.90
20977;DHT22;10647;51.016;3.720;2023-03-23T16:47:54;18.20;99.90
20977;DHT22;10647;51.016;3.720;2023-03-23T16:50:25;18.20;99.90
20977;DHT22;10647;51.016;3.720;2023-03-23T16:52:50;18.20;99.90
20977;DHT22;10647;51.016;3.720;2023-03-23T16:55:18;18.20;99.90
20977;DHT22;10647;51.016;3.720;2023-03-23T16:57:47;18.10;99.90
20977;DHT22;10647;51.016;3.720;2023-03-23T17:00:16;18.00;99.90
20977;DHT22;10647;51.016;3.720;2023-03-23T17:02:49;18.00;99.90
20977;DHT22;10647;51.016;3.720;2023-03-23T17:05:19;18.00;99.90
20977;DHT22;10647;51.016;3.720;2023-03-23T17:07:52;18.10;99.90
20977;DHT22;10647;51.016;3.720;2023-03-23T17:10:23;18.00;99.90
20977;DHT22;10647;51.016;3.720;2023-03-23T17:13:12;18.00;99.90
20977;DHT22;10647;51.016;3.720;2023-03-23T17:15:41;18.00;99.90
20977;DHT22;10647;51.016;3.720;2023-03-23T17:18:15;18.10;99.90
20977;DHT22;10647;51.016;3.720;2023-03-23T17:20:42;18.10;99.90
20977;DHT22;10647;51.016;3.720;2023-03-23T17:23:12;18.00;99.90
20977;DHT22;10647;51.016;3.720;2023-03-23T17:25:39;17.90;99.90
20977;DHT22;10647;51.016;3.720;2023-03-23T17:28:08;17.90;99.90
20977;DHT22;10647;51.016;3.720;2023-03-23T17:30:41;17.80;99.90
20977;DHT22;10647;51.016;3.720;2023-03-23T17:33:09;17.80;99.90
20977;DHT22;10647;51.016;3.720;2023-03-23T17:35:37;17.80;99.90
20977;DHT22;10647;51.016;3.720;2023-03-23T17:38:05;17.70;99.90
20977;DHT22;10647;51.016;3.720;2023-03-23T17:40:34;17.60;99.90
20977;DHT22;10647;51.016;3.720;2023-03-23T17:43:01;17.50;99.90
20977;DHT22;10647;51.016;3.720;2023-03-23T17:45:30;17.50;99.90
20977;DHT22;10647;51.016;3.720;2023-03-23T17:47:58;17.50;99.90
20977;DHT22;10647;51.016;3.720;2023-03-23T17:50:26;17.40;99.90
20977;DHT22;10647;51.016;3.720;2023-03-23T17:52:54;17.40;99.90
20977;DHT22;10647;51.016;3.720;2023-03-23T17:55:23;17.40;99.90
20977;DHT22;10647;51.016;3.720;2023-03-23T17:57:54;17.30;99.90
20977;DHT22;10647;51.016;3.720;2023-03-23T18:00:21;17.30;99.90
20977;DHT22;10647;51.016;3.720;2023-03-23T18:02:59;17.20;99.90
20977;DHT22;10647;51.016;3.720;2023-03-23T18:05:30;17.00;99.90
20977;DHT22;10647;51.016;3.720;2023-03-23T18:08:00;16.90;99.90
20977;DHT22;10647;51.016;3.720;2023-03-23T18:10:29;16.80;99.90
20977;DHT22;10647;51.016;3.720;2023-03-23T18:12:56;16.70;99.90
20977;DHT22;10647;51.016;3.720;2023-03-23T18:15:25;16.60;99.90
20977;DHT22;10647;51.016;3.720;2023-03-23T18:17:54;16.50;99.90
20977;DHT22;10647;51.016;3.720;2023-03-23T18:20:22;16.20;99.90
20977;DHT22;10647;51.016;3.720;2023-03-23T18:22:56;16.10;99.90
20977;DHT22;10647;51.016;3.720;2023-03-23T18:25:28;16.00;99.90
20977;DHT22;10647;51.016;3.720;2023-03-23T18:27:59;15.90;99.90